logo
Search for airport 
image banner adimage banner adimage banner ad
image banner ad

RPLI - Laoag International Airport

Located in Laoag City, Philippines

ICAO - RPLI, IATA - LAO

Data provided by Airmate  

General information

Coordinates: N18°10'34" E120°31'52"
Elevation is 24 feet MSL.
Magnetic variation is -3° East
View others Airports in Ilocos Norte

Operational data

Special qualification required
Current time UTC:
Current local time:
Weather
METAR: RPLI 241900Z 12002KT 9999 FEW018 SCT290 26/23 Q1008 NOSIG RMK A2977
TAF: TAF RPLI 241700Z 2418/2518 08005KT 9999 FEW018 TEMPO 2418/2424 FEW018 BKN090 BECMG 2500/2502 27008KT BECMG 2507/2509 34008KT
View NOTAMs / SUP AIP / TFR affecting this airport [VIEW]
Communications frequencies: [VIEW]

Runways:

RWY identifierQFULength (ft)Width (ft)SurfaceLDA (ft)
019134148CONC9134
19185°9134148CONC9134

Airport contact information

Address: Laoag City Philippines

Satellite view of RPLI